createdAt,value
2019-04-16T00:01:36.200Z,63.50
2019-04-16T00:04:24.989Z,64.30
2019-04-16T00:07:20.192Z,64.20
2019-04-16T00:10:04.040Z,64.80
2019-04-16T00:12:52.580Z,64.80
2019-04-16T00:15:22.027Z,64.80
2019-04-16T00:17:51.475Z,65.40
2019-04-16T00:20:20.925Z,65.70
2019-04-16T00:22:56.766Z,65.60
2019-04-16T00:25:26.232Z,66.00
2019-04-16T00:27:59.514Z,66.30
2019-04-16T00:30:26.769Z,66.50
2019-04-16T00:32:56.286Z,67.00
2019-04-16T00:35:25.727Z,67.20
2019-04-16T00:37:55.202Z,68.20
2019-04-16T00:40:26.603Z,67.80
2019-04-16T00:42:55.735Z,67.90
2019-04-16T00:45:25.180Z,68.20
2019-04-16T00:47:54.647Z,68.60
2019-04-16T00:52:54.920Z,67.80
2019-04-16T00:55:24.363Z,68.70
2019-04-16T00:57:53.827Z,69.10
2019-04-16T01:00:23.271Z,70.00
2019-04-16T01:02:52.724Z,70.50
2019-04-16T01:05:22.179Z,70.90
2019-04-16T01:07:51.647Z,70.90
2019-04-16T01:10:21.101Z,70.80
2019-04-16T01:12:50.543Z,71.70
2019-04-16T01:15:19.996Z,72.60
2019-04-16T01:17:49.439Z,72.70
2019-04-16T01:20:18.920Z,73.40
2019-04-16T01:22:48.379Z,73.60
2019-04-16T01:25:20.264Z,73.80
2019-04-16T01:27:53.963Z,74.10
2019-04-16T01:30:36.566Z,75.00
2019-04-16T01:33:21.975Z,75.80
2019-04-16T01:36:16.254Z,75.90
2019-04-16T01:39:07.612Z,76.60
2019-04-16T01:41:25.047Z,77.50
2019-04-16T01:43:57.139Z,79.10
2019-04-16T01:46:25.584Z,80.20
2019-04-16T01:48:55.049Z,81.10
2019-04-16T01:51:24.492Z,81.70
2019-04-16T01:53:53.953Z,82.70
2019-04-16T01:56:27.939Z,83.70
2019-04-16T01:58:54.864Z,84.40
2019-04-16T02:01:24.291Z,85.30
2019-04-16T02:03:53.735Z,86.40
2019-04-16T02:06:25.605Z,87.50
2019-04-16T02:08:54.271Z,88.00
2019-04-16T02:11:23.720Z,89.10
2019-04-16T02:13:53.163Z,90.00
2019-04-16T02:16:25.256Z,90.30
2019-04-16T02:18:53.703Z,90.40
2019-04-16T02:21:23.147Z,91.00
2019-04-16T02:23:52.600Z,91.20
2019-04-16T02:26:23.533Z,91.90
2019-04-16T02:28:53.120Z,92.50
2019-04-16T02:31:22.573Z,93.10
2019-04-16T02:33:52.027Z,93.70
2019-04-16T02:36:21.512Z,94.60
2019-04-16T02:38:53.189Z,95.00
2019-04-16T02:41:23.330Z,95.70
2019-04-16T02:43:53.166Z,96.30
2019-04-16T02:46:22.627Z,96.70
2019-04-16T02:48:52.067Z,97.00
2019-04-16T02:51:46.599Z,97.20
2019-04-16T02:54:34.480Z,97.80
2019-04-16T02:57:25.919Z,98.00
2019-04-16T02:59:52.928Z,99.00
2019-04-16T03:02:47.061Z,99.90
2019-04-16T03:05:26.479Z,99.70
2019-04-16T03:07:55.127Z,99.90
2019-04-16T03:10:24.565Z,99.90
2019-04-16T03:12:53.995Z,99.90
2019-04-16T03:16:02.794Z,99.90
2019-04-16T03:18:47.412Z,99.90
2019-04-16T03:21:16.204Z,99.90
2019-04-16T03:23:45.678Z,99.90
2019-04-16T03:26:17.590Z,99.90
2019-04-16T03:28:46.252Z,99.90
2019-04-16T03:31:22.249Z,99.90
2019-04-16T03:33:50.202Z,99.90
2019-04-16T03:36:17.872Z,99.90
2019-04-16T03:38:47.359Z,99.90
2019-04-16T03:41:16.818Z,99.90
2019-04-16T03:43:46.265Z,99.90
2019-04-16T03:46:15.717Z,99.90
2019-04-16T03:48:45.155Z,99.90
2019-04-16T03:51:14.607Z,99.90
2019-04-16T03:53:46.564Z,99.90
2019-04-16T03:56:15.182Z,99.90
2019-04-16T03:58:44.626Z,99.90
2019-04-16T04:01:15.310Z,99.90
2019-04-16T04:03:44.903Z,99.90
2019-04-16T04:06:14.345Z,99.90
2019-04-16T04:08:48.029Z,99.90
2019-04-16T04:11:14.891Z,99.90
2019-04-16T04:13:49.519Z,99.90
2019-04-16T04:16:15.468Z,99.90
2019-04-16T04:18:44.923Z,99.90
2019-04-16T04:21:14.376Z,99.90
2019-04-16T04:23:43.823Z,99.90
2019-04-16T04:26:13.271Z,99.90
2019-04-16T04:28:42.732Z,99.90
2019-04-16T04:31:12.366Z,99.90
2019-04-16T04:33:43.083Z,99.90
2019-04-16T04:36:12.995Z,99.90
2019-04-16T04:38:42.506Z,99.90
2019-04-16T04:41:11.954Z,99.90
2019-04-16T04:43:41.402Z,99.90
2019-04-16T04:46:14.519Z,99.90
2019-04-16T04:48:42.119Z,99.90
2019-04-16T04:51:11.573Z,99.90
2019-04-16T04:53:41.015Z,99.90
2019-04-16T04:56:10.460Z,99.90
2019-04-16T04:58:39.920Z,99.90
2019-04-16T05:01:12.618Z,99.90
2019-04-16T05:04:11.232Z,99.90
2019-04-16T05:06:42.098Z,99.90
2019-04-16T05:09:11.571Z,99.90
2019-04-16T05:11:41.007Z,99.90
2019-04-16T05:14:10.567Z,99.90
2019-04-16T05:16:40.080Z,99.90
2019-04-16T05:19:13.864Z,99.90
2019-04-16T05:21:40.643Z,99.90
2019-04-16T05:24:10.139Z,99.90
2019-04-16T05:26:39.982Z,99.90
2019-04-16T05:29:17.520Z,99.90
2019-04-16T05:31:44.398Z,99.90
2019-04-16T05:34:17.386Z,99.90
2019-04-16T05:36:47.677Z,99.90
2019-04-16T05:39:16.310Z,99.90
2019-04-16T05:41:45.771Z,99.90
2019-04-16T05:44:15.228Z,99.90
2019-04-16T05:46:46.804Z,99.90
2019-04-16T05:49:15.820Z,99.90
2019-04-16T05:51:45.276Z,99.90
2019-04-16T05:54:26.107Z,99.90
2019-04-16T05:56:57.184Z,99.90
2019-04-16T05:59:26.657Z,99.90
2019-04-16T06:02:07.646Z,99.90
2019-04-16T06:04:37.104Z,99.90
2019-04-16T06:07:07.734Z,99.90
2019-04-16T06:09:37.510Z,99.90
2019-04-16T06:12:08.780Z,99.90
2019-04-16T06:14:56.989Z,99.90
2019-04-16T06:17:44.191Z,99.90
2019-04-16T06:20:21.396Z,99.90
2019-04-16T06:23:08.753Z,99.90
2019-04-16T06:25:41.388Z,99.90
2019-04-16T06:28:29.000Z,99.90
2019-04-16T06:31:23.195Z,99.90
2019-04-16T06:34:26.874Z,99.90
2019-04-16T06:37:27.451Z,99.90
2019-04-16T06:40:05.562Z,99.90
2019-04-16T06:42:54.206Z,99.90
2019-04-16T06:45:36.527Z,99.90
2019-04-16T06:48:12.845Z,99.90
2019-04-16T06:51:13.214Z,99.90
2019-04-16T06:54:07.517Z,99.90
2019-04-16T06:56:44.580Z,99.90
2019-04-16T06:59:36.195Z,99.90
2019-04-16T07:02:30.729Z,99.90
2019-04-16T07:05:11.430Z,99.90
2019-04-16T07:07:58.052Z,99.90
2019-04-16T07:10:43.735Z,99.90
2019-04-16T07:13:02.151Z,99.90
2019-04-16T07:15:31.592Z,99.90
2019-04-16T07:18:02.471Z,99.50
2019-04-16T07:20:32.149Z,99.90
2019-04-16T07:23:01.595Z,97.70
2019-04-16T07:25:31.914Z,96.20
2019-04-16T07:28:06.520Z,96.40
2019-04-16T07:30:41.522Z,95.70
2019-04-16T07:33:30.084Z,95.00
2019-04-16T07:36:27.274Z,94.50
2019-04-16T07:39:28.989Z,93.10
2019-04-16T07:42:11.792Z,92.20
2019-04-16T07:44:45.319Z,91.70
2019-04-16T07:47:32.000Z,91.00
2019-04-16T07:50:06.663Z,89.20
2019-04-16T07:52:55.032Z,86.40
2019-04-16T07:55:42.845Z,85.50
2019-04-16T07:58:12.290Z,85.00
2019-04-16T08:00:41.721Z,80.40
2019-04-16T08:03:11.226Z,78.50
2019-04-16T08:05:41.787Z,77.90
2019-04-16T08:08:11.328Z,77.00
2019-04-16T08:10:40.768Z,74.70
2019-04-16T08:13:20.958Z,72.30
2019-04-16T08:15:50.397Z,71.10
2019-04-16T08:18:19.888Z,67.70
2019-04-16T08:21:00.356Z,67.20
2019-04-16T08:23:30.782Z,65.10
2019-04-16T08:26:04.085Z,63.30
2019-04-16T08:28:32.051Z,64.50
2019-04-16T08:31:02.118Z,63.80
2019-04-16T08:33:32.607Z,63.40
2019-04-16T08:36:02.047Z,62.50
2019-04-16T08:38:34.077Z,69.60
2019-04-16T08:41:02.871Z,73.10
2019-04-16T08:43:32.318Z,73.80
2019-04-16T08:46:01.727Z,75.80
2019-04-16T08:48:31.184Z,77.70
2019-04-16T08:51:00.629Z,59.50
2019-04-16T08:53:30.068Z,61.60
2019-04-16T08:55:59.516Z,62.50
2019-04-16T08:58:28.963Z,57.30
2019-04-16T09:00:58.581Z,57.60
2019-04-16T09:03:30.012Z,57.00
2019-04-16T09:05:59.120Z,56.80
2019-04-16T09:08:47.504Z,55.00
2019-04-16T09:11:23.668Z,54.10
2019-04-16T09:13:52.686Z,54.90
2019-04-16T09:16:22.320Z,53.30
2019-04-16T09:18:57.744Z,54.00
2019-04-16T09:21:28.079Z,54.80
2019-04-16T09:24:14.955Z,52.90
2019-04-16T09:26:52.683Z,53.50
2019-04-16T09:29:40.326Z,51.90
2019-04-16T09:32:28.732Z,52.50
2019-04-16T09:35:19.968Z,52.60
2019-04-16T09:37:53.248Z,52.00
2019-04-16T09:40:49.262Z,52.30
2019-04-16T09:43:22.070Z,52.50
2019-04-16T09:45:51.514Z,50.90
2019-04-16T09:48:20.948Z,50.30
2019-04-16T09:50:50.448Z,49.20
2019-04-16T09:53:32.863Z,47.70
2019-04-16T09:55:51.307Z,48.80
2019-04-16T09:58:22.909Z,47.50
2019-04-16T10:01:04.607Z,46.30
2019-04-16T10:03:36.148Z,46.70
2019-04-16T10:06:06.103Z,45.70
2019-04-16T10:08:35.555Z,44.70
2019-04-16T10:11:06.186Z,45.90
2019-04-16T10:13:36.482Z,46.00
2019-04-16T10:16:06.132Z,45.90
2019-04-16T10:18:36.037Z,47.40
2019-04-16T10:21:05.839Z,45.70
2019-04-16T10:23:50.706Z,46.60
2019-04-16T10:26:20.481Z,46.40
2019-04-16T10:28:50.167Z,45.10
2019-04-16T10:31:20.353Z,45.10
2019-04-16T10:33:49.817Z,44.80
2019-04-16T10:36:19.337Z,44.80
2019-04-16T10:38:54.710Z,43.60
2019-04-16T10:41:32.399Z,43.80
2019-04-16T10:44:32.670Z,43.00
2019-04-16T10:47:20.480Z,42.70
2019-04-16T10:50:15.090Z,42.60
2019-04-16T10:53:03.539Z,41.70
2019-04-16T10:55:54.684Z,40.60
2019-04-16T10:58:41.489Z,40.50
2019-04-16T11:01:32.962Z,40.30
2019-04-16T11:04:17.786Z,38.80
2019-04-16T11:06:48.685Z,40.40
2019-04-16T11:09:18.337Z,39.00
2019-04-16T11:11:47.814Z,38.30
2019-04-16T11:14:17.639Z,38.20
2019-04-16T11:16:49.989Z,38.00
2019-04-16T11:19:19.655Z,38.20
2019-04-16T11:21:49.119Z,37.00
2019-04-16T11:24:20.457Z,37.70
2019-04-16T11:26:49.614Z,38.20
2019-04-16T11:29:19.325Z,36.70
2019-04-16T11:31:48.754Z,35.50
2019-04-16T11:34:18.175Z,37.00
2019-04-16T11:36:47.631Z,36.10
2019-04-16T11:39:17.057Z,36.00
2019-04-16T11:41:46.872Z,36.10
2019-04-16T11:44:17.400Z,35.90
2019-04-16T11:46:47.033Z,34.50
2019-04-16T11:49:16.431Z,33.90
2019-04-16T11:51:45.926Z,35.00
2019-04-16T11:54:15.360Z,35.70
2019-04-16T11:56:46.215Z,34.70
2019-04-16T11:59:15.685Z,34.80
2019-04-16T12:02:05.527Z,33.80
2019-04-16T12:04:58.834Z,34.80
2019-04-16T12:07:53.104Z,34.20
2019-04-16T12:10:44.159Z,34.40
2019-04-16T12:13:19.932Z,33.50
2019-04-16T12:16:14.183Z,34.90
2019-04-16T12:19:17.919Z,33.00
2019-04-16T12:22:10.887Z,33.60
2019-04-16T12:25:05.516Z,32.70
2019-04-16T12:27:53.279Z,33.50
2019-04-16T12:30:40.235Z,33.30
2019-04-16T12:33:28.748Z,33.10
2019-04-16T12:36:17.097Z,33.10
2019-04-16T12:38:56.023Z,32.40
2019-04-16T12:41:43.025Z,32.70
2019-04-16T12:44:27.862Z,32.10
2019-04-16T12:47:28.405Z,32.00
2019-04-16T12:50:09.974Z,31.50
2019-04-16T12:52:55.002Z,32.70
2019-04-16T12:55:32.821Z,31.00
2019-04-16T12:58:27.340Z,31.20
2019-04-16T13:01:12.222Z,31.40
2019-04-16T13:04:06.326Z,32.10
2019-04-16T13:06:51.427Z,31.00
2019-04-16T13:09:32.587Z,29.90
2019-04-16T13:12:10.097Z,31.90
2019-04-16T13:15:00.969Z,40.50
2019-04-16T14:07:17.012Z,34.20
2019-04-16T14:09:46.449Z,35.10
2019-04-16T14:12:15.896Z,34.60
2019-04-16T14:14:46.672Z,35.00
2019-04-16T14:17:18.580Z,34.70
2019-04-16T14:19:48.044Z,34.50
2019-04-16T14:22:21.680Z,33.50
2019-04-16T14:24:48.561Z,33.10
2019-04-16T14:27:18.003Z,33.80
2019-04-16T14:29:47.971Z,34.00
2019-04-16T14:32:17.420Z,34.10
2019-04-16T14:34:57.933Z,33.70
2019-04-16T14:37:27.368Z,34.70
2019-04-16T14:40:14.355Z,34.70
2019-04-16T14:42:43.696Z,34.50
2019-04-16T14:45:21.030Z,34.20
2019-04-16T14:47:50.427Z,32.80
2019-04-16T14:50:20.089Z,32.30
2019-04-16T14:52:50.810Z,32.10
2019-04-16T14:55:38.126Z,31.50
2019-04-16T14:58:22.038Z,32.00
2019-04-16T15:01:00.439Z,31.20
2019-04-16T15:03:47.500Z,30.90
2019-04-16T15:06:34.150Z,32.00
2019-04-16T15:09:21.518Z,31.90
2019-04-16T15:12:09.779Z,31.10
2019-04-16T15:14:44.103Z,31.60
2019-04-16T15:17:16.577Z,31.00
2019-04-16T15:19:59.196Z,31.30
2019-04-16T15:22:56.427Z,32.00
2019-04-16T15:25:36.370Z,32.50
2019-04-16T15:28:15.557Z,32.00
2019-04-16T15:31:15.775Z,31.60
2019-04-16T15:33:49.105Z,32.00
2019-04-16T15:36:40.287Z,32.30
2019-04-16T15:39:20.639Z,32.40
2019-04-16T15:42:16.370Z,33.40
2019-04-16T15:45:02.497Z,32.70
2019-04-16T15:47:46.962Z,33.60
2019-04-16T15:50:35.910Z,34.00
2019-04-16T15:53:12.629Z,34.10
2019-04-16T15:56:05.546Z,33.90
2019-04-16T15:58:49.094Z,33.80
2019-04-16T16:01:35.923Z,34.20
2019-04-16T16:04:16.699Z,35.40
2019-04-16T16:06:52.316Z,35.20
2019-04-16T16:09:27.664Z,35.70
2019-04-16T16:12:04.096Z,36.20
2019-04-16T16:14:38.732Z,36.40
2019-04-16T16:17:07.644Z,37.10
2019-04-16T16:19:37.597Z,37.20
2019-04-16T16:22:11.066Z,37.00
2019-04-16T16:24:42.058Z,37.30
2019-04-16T16:27:09.035Z,37.10
2019-04-16T16:29:38.375Z,37.80
2019-04-16T16:32:08.030Z,37.90
2019-04-16T16:34:37.429Z,38.20
2019-04-16T16:37:06.763Z,38.40
2019-04-16T16:39:36.102Z,38.60
2019-04-16T16:42:05.450Z,38.40
2019-04-16T16:44:34.858Z,39.50
2019-04-16T16:47:26.269Z,39.20
2019-04-16T16:49:55.909Z,39.10
2019-04-16T16:52:44.226Z,38.90
2019-04-16T16:55:18.207Z,38.80
2019-04-16T16:57:56.030Z,39.30
2019-04-16T17:00:42.684Z,38.60
2019-04-16T17:03:24.367Z,39.40
2019-04-16T17:05:54.023Z,39.90
2019-04-16T17:08:23.406Z,39.60
2019-04-16T17:10:52.750Z,40.00
2019-04-16T17:13:22.170Z,39.00
2019-04-16T17:15:51.562Z,39.40
2019-04-16T17:18:20.901Z,39.20
2019-04-16T17:20:50.591Z,39.40
2019-04-16T17:23:19.919Z,39.80
2019-04-16T17:25:49.254Z,40.30
2019-04-16T17:28:18.580Z,40.30
2019-04-16T17:30:47.928Z,40.00
2019-04-16T17:33:17.275Z,40.70
2019-04-16T17:35:47.145Z,41.30
2019-04-16T17:38:16.543Z,41.30
2019-04-16T17:41:00.246Z,41.80
2019-04-16T17:43:59.907Z,41.60
2019-04-16T17:46:43.441Z,41.90
2019-04-16T17:49:24.414Z,42.20
2019-04-16T17:51:58.895Z,42.80
2019-04-16T17:54:53.055Z,43.30
2019-04-16T17:57:44.837Z,43.40
2019-04-16T18:00:46.038Z,43.20
2019-04-16T18:03:45.867Z,44.10
2019-04-16T18:06:34.443Z,44.30
2019-04-16T18:09:15.186Z,44.80
2019-04-16T18:11:58.362Z,46.40
2019-04-16T18:14:44.983Z,45.90
2019-04-16T18:17:46.886Z,46.30
2019-04-16T18:20:21.674Z,46.50
2019-04-16T18:23:12.122Z,47.30
2019-04-16T18:25:59.279Z,46.90
2019-04-16T18:28:32.838Z,47.50
2019-04-16T18:31:07.755Z,48.00
2019-04-16T18:33:59.450Z,48.10
2019-04-16T18:36:36.572Z,48.30
2019-04-16T18:39:25.486Z,48.90
2019-04-16T18:42:05.170Z,48.70
2019-04-16T18:44:46.140Z,49.20
2019-04-16T18:47:37.751Z,49.40
2019-04-16T18:50:11.759Z,49.80
2019-04-16T18:52:41.101Z,49.20
2019-04-16T18:55:10.518Z,49.40
2019-04-16T18:57:39.939Z,49.80
2019-04-16T19:00:35.333Z,49.90
2019-04-16T19:03:04.683Z,50.00
2019-04-16T19:05:34.062Z,50.40
2019-04-16T19:08:03.395Z,50.60
2019-04-16T19:10:32.724Z,50.40
2019-04-16T19:13:02.135Z,50.80
2019-04-16T19:15:31.765Z,51.20
2019-04-16T19:18:17.247Z,51.50
2019-04-16T19:20:32.238Z,51.50
2019-04-16T19:23:01.584Z,51.80
2019-04-16T19:25:30.975Z,51.80
2019-04-16T19:28:04.464Z,52.10
2019-04-16T19:30:31.372Z,53.00
2019-04-16T19:33:01.979Z,52.40
2019-04-16T19:35:31.734Z,52.40
2019-04-16T19:38:02.663Z,52.50
2019-04-16T19:40:32.174Z,52.90
2019-04-16T19:43:03.182Z,53.00
2019-04-16T19:45:32.574Z,53.40
2019-04-16T19:48:02.352Z,53.30
2019-04-16T19:50:36.135Z,53.40
2019-04-16T19:53:02.935Z,53.80
2019-04-16T19:55:32.282Z,53.80
2019-04-16T19:58:01.695Z,54.10
2019-04-16T20:00:31.039Z,54.40
2019-04-16T20:03:00.387Z,54.30
2019-04-16T20:05:29.727Z,54.00
2019-04-16T20:07:59.168Z,54.20
2019-04-16T20:10:28.568Z,54.60
2019-04-16T20:12:59.746Z,55.50
2019-04-16T20:15:29.239Z,55.20
2019-04-16T20:17:58.649Z,55.10
2019-04-16T20:20:28.059Z,55.20
2019-04-16T20:22:57.386Z,55.20
2019-04-16T20:25:26.732Z,55.60
2019-04-16T20:27:56.156Z,55.50
2019-04-16T20:30:25.555Z,55.80
2019-04-16T20:32:55.279Z,55.70
2019-04-16T20:35:24.689Z,55.50
2019-04-16T20:37:55.199Z,55.50
2019-04-16T20:40:25.027Z,55.90
2019-04-16T20:42:54.442Z,56.10
2019-04-16T20:45:23.851Z,56.40
2019-04-16T20:47:53.190Z,56.70
2019-04-16T20:50:22.523Z,56.80
2019-04-16T20:52:51.855Z,57.10
2019-04-16T20:55:21.283Z,57.30
2019-04-16T20:57:50.693Z,57.40
2019-04-16T21:00:26.415Z,57.50
2019-04-16T21:02:56.024Z,58.10
2019-04-16T21:05:25.351Z,58.30
2019-04-16T21:07:54.680Z,58.80
2019-04-16T21:10:24.012Z,58.60
2019-04-16T21:12:55.177Z,58.90
2019-04-16T21:15:27.499Z,58.60
2019-04-16T21:17:56.257Z,58.80
2019-04-16T21:20:25.659Z,59.10
2019-04-16T21:22:57.404Z,59.30
2019-04-16T21:25:26.044Z,59.30
2019-04-16T21:28:08.226Z,59.40
2019-04-16T21:30:40.452Z,59.70
2019-04-16T21:33:17.681Z,60.20
2019-04-16T21:35:49.713Z,60.00
2019-04-16T21:38:22.695Z,60.00
2019-04-16T21:40:52.848Z,60.50
2019-04-16T21:43:23.084Z,60.60
2019-04-16T21:45:52.411Z,61.10
2019-04-16T21:48:23.803Z,61.40
2019-04-16T21:50:54.202Z,61.70
2019-04-16T21:53:24.601Z,61.90
2019-04-16T21:55:55.396Z,62.00
2019-04-16T21:58:24.799Z,62.30
2019-04-16T22:01:15.955Z,62.20
2019-04-16T22:03:48.306Z,62.00
2019-04-16T22:06:20.385Z,62.10
2019-04-16T22:08:48.682Z,62.60
2019-04-16T22:11:18.036Z,63.00
2019-04-16T22:13:50.491Z,63.40
2019-04-16T22:16:18.519Z,63.60
2019-04-16T22:18:47.842Z,63.80
2019-04-16T22:21:17.174Z,64.40
2019-04-16T22:23:50.180Z,64.60
2019-04-16T22:26:17.547Z,64.90
2019-04-16T22:28:46.874Z,65.10
2019-04-16T22:31:16.210Z,65.00
2019-04-16T22:33:45.539Z,65.40
2019-04-16T22:36:14.866Z,65.60
2019-04-16T22:38:47.144Z,65.90
2019-04-16T22:41:35.486Z,65.20
2019-04-16T22:44:15.538Z,65.60
2019-04-16T22:46:50.994Z,66.20
2019-04-16T22:49:22.528Z,66.30
2019-04-16T22:51:51.411Z,66.30
2019-04-16T22:54:21.639Z,66.60
2019-04-16T22:57:00.952Z,66.90
2019-04-16T22:59:28.456Z,66.90
2019-04-16T23:01:57.855Z,66.80
2019-04-16T23:04:27.182Z,67.30
2019-04-16T23:06:56.724Z,67.90
2019-04-16T23:09:27.463Z,67.70
2019-04-16T23:11:57.193Z,68.10
2019-04-16T23:14:26.615Z,68.10
2019-04-16T23:16:56.042Z,68.10
2019-04-16T23:19:25.450Z,68.60
2019-04-16T23:21:54.806Z,68.50
2019-04-16T23:24:24.277Z,68.70
2019-04-16T23:26:53.811Z,69.00
2019-04-16T23:29:23.152Z,69.30
2019-04-16T23:31:55.246Z,69.40
2019-04-16T23:34:23.534Z,69.40
2019-04-16T23:36:53.003Z,70.00
2019-04-16T23:39:22.335Z,70.30
2019-04-16T23:41:51.662Z,70.30
2019-04-16T23:44:54.680Z,70.50
2019-04-16T23:47:42.974Z,71.20
2019-04-16T23:50:44.273Z,71.60
2019-04-16T23:53:12.838Z,71.80
2019-04-16T23:56:01.334Z,71.80
2019-04-16T23:58:36.837Z,72.00
